createdAt,value
2023-02-04T00:02:04.290Z,3.90
2023-02-04T00:04:30.962Z,3.90
2023-02-04T00:06:57.606Z,3.90
2023-02-04T00:09:24.231Z,3.80
2023-02-04T00:11:50.894Z,3.80
2023-02-04T00:14:17.521Z,3.80
2023-02-04T00:16:44.184Z,3.70
2023-02-04T00:19:10.896Z,3.70
2023-02-04T00:21:37.521Z,3.70
2023-02-04T00:24:04.356Z,3.70
2023-02-04T00:26:31.070Z,3.60
2023-02-04T00:28:57.695Z,3.60
2023-02-04T00:31:25.381Z,3.60
2023-02-04T00:33:52.197Z,3.70
2023-02-04T00:36:18.861Z,3.60
2023-02-04T00:38:45.675Z,3.60
2023-02-04T00:41:13.470Z,3.60
2023-02-04T00:43:40.076Z,3.60
2023-02-04T00:46:06.845Z,3.60
2023-02-04T00:48:35.504Z,3.60
2023-02-04T00:51:02.571Z,3.60
2023-02-04T00:53:29.275Z,3.50
2023-02-04T00:55:57.427Z,3.50
2023-02-04T00:58:24.076Z,3.50
2023-02-04T01:00:50.859Z,3.50
2023-02-04T01:03:17.744Z,3.50
2023-02-04T01:05:44.385Z,3.60
2023-02-04T01:08:11.520Z,3.50
2023-02-04T01:10:38.246Z,3.50
2023-02-04T01:13:05.112Z,3.50
2023-02-04T01:15:31.723Z,3.50
2023-02-04T01:17:58.348Z,3.50
2023-02-04T01:20:24.992Z,3.50
2023-02-04T01:22:51.661Z,3.50
2023-02-04T01:25:19.255Z,3.50
2023-02-04T01:27:46.198Z,3.50
2023-02-04T01:30:15.011Z,3.50
2023-02-04T01:32:41.978Z,3.50
2023-02-04T01:35:08.823Z,3.50
2023-02-04T01:37:35.467Z,3.50
2023-02-04T01:40:02.204Z,3.50
2023-02-04T01:42:28.918Z,3.50
2023-02-04T01:44:55.555Z,3.50
2023-02-04T01:47:23.550Z,3.50
2023-02-04T01:49:53.664Z,3.50
2023-02-04T01:52:21.273Z,3.50
2023-02-04T01:54:47.963Z,3.50
2023-02-04T01:57:15.677Z,3.50
2023-02-04T01:59:44.763Z,3.50
2023-02-04T02:02:39.004Z,3.50
2023-02-04T02:05:06.750Z,3.50
2023-02-04T02:07:33.521Z,3.50
2023-02-04T02:10:00.224Z,3.50
2023-02-04T02:12:26.886Z,3.60
2023-02-04T02:14:53.833Z,3.60
2023-02-04T02:17:20.515Z,3.60
2023-02-04T02:19:47.194Z,3.60
2023-02-04T02:22:20.336Z,3.60
2023-02-04T02:24:47.081Z,3.60
2023-02-04T02:27:13.759Z,3.60
2023-02-04T02:29:42.225Z,3.60
2023-02-04T02:32:11.854Z,3.60
2023-02-04T02:34:39.737Z,3.60
2023-02-04T02:37:09.008Z,3.60
2023-02-04T02:39:38.341Z,3.60
2023-02-04T02:42:05.155Z,3.60
2023-02-04T02:44:32.195Z,3.70
2023-02-04T02:46:59.730Z,3.70
2023-02-04T02:49:30.319Z,3.70
2023-02-04T02:51:57.031Z,3.70
2023-02-04T02:54:31.461Z,3.70
2023-02-04T02:57:01.873Z,3.70
2023-02-04T02:59:28.633Z,3.70
2023-02-04T03:01:58.012Z,3.80
2023-02-04T03:04:28.283Z,3.80
2023-02-04T03:06:56.128Z,3.80
2023-02-04T03:09:25.238Z,3.80
2023-02-04T03:11:52.159Z,3.80
2023-02-04T03:14:19.602Z,3.90
2023-02-04T03:16:47.803Z,3.90
2023-02-04T03:19:14.812Z,3.90
2023-02-04T03:21:42.453Z,3.90
2023-02-04T03:24:09.971Z,3.90
2023-02-04T03:26:37.812Z,3.90
2023-02-04T03:29:09.226Z,3.90
2023-02-04T03:31:37.696Z,3.90
2023-02-04T03:34:05.063Z,3.90
2023-02-04T03:36:31.700Z,3.90
2023-02-04T03:38:58.920Z,3.90
2023-02-04T03:41:25.562Z,3.90
2023-02-04T03:43:52.144Z,3.90
2023-02-04T03:46:18.866Z,3.90
2023-02-04T03:48:45.537Z,3.90
2023-02-04T03:51:12.415Z,4.00
2023-02-04T03:53:39.058Z,4.00
2023-02-04T03:56:05.907Z,4.00
2023-02-04T03:58:32.691Z,4.00
2023-02-04T04:00:59.371Z,4.00
2023-02-04T04:03:26.034Z,4.10
2023-02-04T04:05:52.694Z,4.10
2023-02-04T04:08:19.315Z,4.10
2023-02-04T04:10:45.970Z,4.10
2023-02-04T04:13:12.583Z,4.10
2023-02-04T04:15:39.344Z,4.10
2023-02-04T04:18:06.068Z,4.10
2023-02-04T04:20:33.037Z,4.10
2023-02-04T04:22:59.968Z,4.10
2023-02-04T04:25:26.649Z,4.10
2023-02-04T04:27:53.349Z,4.10
2023-02-04T04:30:20.099Z,4.10
2023-02-04T04:32:46.737Z,4.10
2023-02-04T04:35:13.494Z,4.20
2023-02-04T04:37:40.147Z,4.20
2023-02-04T04:40:07.081Z,4.10
2023-02-04T04:42:33.754Z,4.10
2023-02-04T04:45:00.471Z,4.10
2023-02-04T04:47:27.041Z,4.10
2023-02-04T04:49:53.683Z,4.10
2023-02-04T04:52:20.300Z,4.10
2023-02-04T04:54:47.029Z,4.10
2023-02-04T04:57:13.753Z,4.10
2023-02-04T04:59:40.339Z,4.10
2023-02-04T05:02:07.039Z,4.10
2023-02-04T05:04:33.805Z,4.10
2023-02-04T05:07:00.507Z,4.10
2023-02-04T05:09:27.119Z,4.10
2023-02-04T05:11:53.832Z,4.20
2023-02-04T05:14:20.376Z,4.20
2023-02-04T05:16:47.019Z,4.20
2023-02-04T05:19:13.679Z,4.20
2023-02-04T05:21:40.282Z,4.10
2023-02-04T05:24:06.947Z,4.20
2023-02-04T05:26:33.661Z,4.10
2023-02-04T05:29:00.432Z,4.20
2023-02-04T05:31:27.968Z,4.20
2023-02-04T05:33:54.942Z,4.20
2023-02-04T05:36:21.961Z,4.20
2023-02-04T05:38:48.861Z,4.20
2023-02-04T05:41:15.535Z,4.20
2023-02-04T05:43:43.093Z,4.20
2023-02-04T05:46:10.100Z,4.20
2023-02-04T05:48:36.833Z,4.20
2023-02-04T05:51:03.497Z,4.30
2023-02-04T05:53:30.129Z,4.20
2023-02-04T05:55:56.811Z,4.30
2023-02-04T05:58:23.530Z,4.30
2023-02-04T06:00:50.183Z,4.20
2023-02-04T06:03:19.398Z,4.30
2023-02-04T06:05:46.151Z,4.30
2023-02-04T06:08:15.702Z,4.20
2023-02-04T06:10:42.400Z,4.20
2023-02-04T06:13:09.038Z,4.20
2023-02-04T06:15:35.868Z,4.20
2023-02-04T06:18:02.453Z,4.20
2023-02-04T06:20:29.168Z,4.20
2023-02-04T06:22:55.797Z,4.20
2023-02-04T06:25:23.058Z,4.20
2023-02-04T06:27:49.975Z,4.20
2023-02-04T06:30:17.281Z,4.20
2023-02-04T06:32:44.199Z,4.20
2023-02-04T06:35:12.901Z,4.20
2023-02-04T06:37:39.635Z,4.20
2023-02-04T06:40:06.563Z,4.20
2023-02-04T06:42:33.246Z,4.20
2023-02-04T06:44:59.956Z,4.20
2023-02-04T06:47:26.631Z,4.20
2023-02-04T06:49:53.306Z,4.20
2023-02-04T06:52:19.939Z,4.20
2023-02-04T06:54:46.590Z,4.20
2023-02-04T06:57:13.251Z,4.20
2023-02-04T06:59:41.315Z,4.20
2023-02-04T07:02:08.155Z,4.20
2023-02-04T07:04:35.366Z,4.20
2023-02-04T07:07:02.180Z,4.20
2023-02-04T07:09:28.880Z,4.20
2023-02-04T07:11:55.493Z,4.20
2023-02-04T07:14:22.120Z,4.20
2023-02-04T07:16:48.752Z,4.20
2023-02-04T07:19:15.420Z,4.20
2023-02-04T07:21:42.075Z,4.20
2023-02-04T07:24:08.702Z,4.20
2023-02-04T07:26:35.458Z,4.20
2023-02-04T07:29:02.006Z,4.20
2023-02-04T07:31:28.754Z,4.20
2023-02-04T07:33:55.375Z,4.20
2023-02-04T07:36:22.201Z,4.20
2023-02-04T07:38:48.794Z,4.30
2023-02-04T07:41:15.481Z,4.30
2023-02-04T07:43:42.396Z,4.30
2023-02-04T07:46:09.093Z,4.30
2023-02-04T07:48:35.768Z,4.30
2023-02-04T07:51:02.684Z,4.30
2023-02-04T07:53:29.378Z,4.30
2023-02-04T07:55:55.959Z,4.30
2023-02-04T07:58:23.085Z,4.40
2023-02-04T08:00:49.850Z,4.40
2023-02-04T08:03:16.422Z,4.30
2023-02-04T08:05:43.133Z,4.30
2023-02-04T08:08:09.785Z,4.40
2023-02-04T08:10:36.442Z,4.40
2023-02-04T08:13:03.431Z,4.40
2023-02-04T08:15:30.089Z,4.40
2023-02-04T08:17:56.709Z,4.40
2023-02-04T08:20:23.375Z,4.40
2023-02-04T08:22:50.055Z,4.40
2023-02-04T08:25:16.642Z,4.40
2023-02-04T08:27:43.361Z,4.40
2023-02-04T08:30:10.302Z,4.40
2023-02-04T08:32:37.185Z,4.40
2023-02-04T08:35:06.177Z,4.50
2023-02-04T08:37:33.092Z,4.50
2023-02-04T08:39:59.762Z,4.50
2023-02-04T08:42:26.485Z,4.50
2023-02-04T08:44:53.062Z,4.60
2023-02-04T08:47:19.745Z,4.50
2023-02-04T08:49:46.418Z,4.50
2023-02-04T08:52:13.069Z,4.50
2023-02-04T08:54:39.767Z,4.50
2023-02-04T08:57:06.483Z,4.50
2023-02-04T08:59:33.038Z,4.50
2023-02-04T09:01:59.868Z,4.50
2023-02-04T09:04:28.331Z,4.40
2023-02-04T09:06:55.436Z,4.40
2023-02-04T09:09:23.285Z,4.50
2023-02-04T09:11:50.567Z,4.50
2023-02-04T09:14:17.238Z,4.50
2023-02-04T09:16:43.973Z,4.50
2023-02-04T09:19:12.672Z,4.50
2023-02-04T09:21:39.342Z,4.50
2023-02-04T09:24:06.005Z,4.50
2023-02-04T09:26:32.691Z,4.50
2023-02-04T09:28:59.399Z,4.50
2023-02-04T09:31:26.107Z,4.50
2023-02-04T09:33:52.787Z,4.50
2023-02-04T09:36:20.479Z,4.50
2023-02-04T09:38:47.163Z,4.50
2023-02-04T09:41:14.963Z,4.50
2023-02-04T09:43:44.916Z,4.50
2023-02-04T09:46:23.571Z,4.50
2023-02-04T09:48:50.794Z,4.50
2023-02-04T09:51:22.056Z,4.50
2023-02-04T09:53:49.947Z,4.50
2023-02-04T09:56:17.173Z,4.50
2023-02-04T09:58:44.093Z,4.50
2023-02-04T10:01:15.540Z,4.50
2023-02-04T10:03:47.812Z,4.60
2023-02-04T10:06:20.240Z,4.50
2023-02-04T10:08:48.944Z,4.60
2023-02-04T10:11:17.618Z,4.50
2023-02-04T10:13:50.285Z,4.50
2023-02-04T10:16:37.793Z,4.50
2023-02-04T10:19:10.875Z,4.50
2023-02-04T10:21:37.714Z,4.50
2023-02-04T10:24:06.975Z,4.50
2023-02-04T10:26:34.137Z,4.40
2023-02-04T10:29:03.295Z,4.40
2023-02-04T10:31:32.855Z,4.30
2023-02-04T10:34:18.577Z,4.30
2023-02-04T10:36:51.590Z,4.30
2023-02-04T10:39:23.470Z,4.20
2023-02-04T10:41:52.747Z,4.20
2023-02-04T10:44:30.768Z,4.20
2023-02-04T10:47:03.466Z,4.20
2023-02-04T10:49:30.321Z,4.20
2023-02-04T10:51:57.904Z,4.10
2023-02-04T10:54:38.290Z,4.10
2023-02-04T10:57:26.910Z,4.10
2023-02-04T10:59:56.567Z,4.20
2023-02-04T11:02:38.402Z,4.20
2023-02-04T11:05:18.418Z,4.20
2023-02-04T11:07:47.335Z,4.20
2023-02-04T11:10:25.394Z,4.30
2023-02-04T11:12:54.759Z,4.30
2023-02-04T11:15:45.027Z,4.30
2023-02-04T11:18:26.356Z,4.30
2023-02-04T11:20:57.460Z,4.40
2023-02-04T11:23:26.936Z,4.30
2023-02-04T11:26:10.207Z,4.30
2023-02-04T11:28:48.178Z,4.40
2023-02-04T11:31:21.324Z,4.40
2023-02-04T11:33:49.872Z,4.40
2023-02-04T11:36:17.247Z,4.40
2023-02-04T11:38:46.904Z,4.40
2023-02-04T11:41:39.863Z,4.40
2023-02-04T11:44:09.303Z,4.40
2023-02-04T11:46:36.128Z,4.40
2023-02-04T11:49:03.065Z,4.30
2023-02-04T11:51:34.179Z,4.30
2023-02-04T11:54:00.926Z,4.30
2023-02-04T11:56:30.548Z,4.30
2023-02-04T11:58:58.702Z,4.30
2023-02-04T12:01:31.181Z,4.30
2023-02-04T12:04:00.941Z,4.30
2023-02-04T12:06:30.487Z,4.30
2023-02-04T12:09:26.015Z,4.30
2023-02-04T12:12:01.411Z,4.20
2023-02-04T12:14:38.771Z,4.30
2023-02-04T12:17:19.928Z,4.30
2023-02-04T12:19:46.668Z,4.30
2023-02-04T12:22:14.704Z,4.40
2023-02-04T12:24:41.619Z,4.40
2023-02-04T12:27:08.267Z,4.40
2023-02-04T12:29:34.935Z,4.40
2023-02-04T12:32:01.710Z,4.50
2023-02-04T12:34:28.822Z,4.50
2023-02-04T12:36:55.508Z,4.50
2023-02-04T12:39:22.156Z,4.60
2023-02-04T12:41:48.826Z,4.60
2023-02-04T12:44:17.279Z,4.70
2023-02-04T12:46:44.027Z,4.70
2023-02-04T12:49:10.674Z,4.80
2023-02-04T12:51:37.324Z,4.90
2023-02-04T12:54:04.127Z,4.90
2023-02-04T12:56:30.952Z,5.10
2023-02-04T12:58:57.619Z,5.10
2023-02-04T13:01:24.289Z,5.20
2023-02-04T13:03:51.010Z,5.30
2023-02-04T13:06:17.703Z,5.40
2023-02-04T13:08:44.281Z,5.40
2023-02-04T13:11:10.911Z,5.50
2023-02-04T13:13:37.636Z,5.50
2023-02-04T13:16:05.753Z,5.60
2023-02-04T13:18:33.913Z,5.60
2023-02-04T13:21:00.543Z,5.60
2023-02-04T13:23:27.203Z,5.60
2023-02-04T13:25:53.865Z,5.60
2023-02-04T13:28:20.641Z,5.60
2023-02-04T13:30:47.293Z,5.60
2023-02-04T13:33:14.009Z,5.60
2023-02-04T13:35:40.840Z,5.60
2023-02-04T13:38:07.461Z,5.60
2023-02-04T13:40:34.142Z,5.60
2023-02-04T13:43:00.797Z,5.70
2023-02-04T13:45:27.452Z,5.60
2023-02-04T13:47:54.119Z,5.60
2023-02-04T13:50:20.791Z,5.60
2023-02-04T13:52:47.384Z,5.60
2023-02-04T13:55:14.908Z,5.60
2023-02-04T13:57:41.605Z,5.60
2023-02-04T14:00:09.717Z,5.60
2023-02-04T14:02:39.371Z,5.60
2023-02-04T14:05:06.350Z,5.60
2023-02-04T14:07:33.991Z,5.60
2023-02-04T14:10:00.663Z,5.60
2023-02-04T14:12:27.355Z,5.60
2023-02-04T14:14:54.028Z,5.70
2023-02-04T14:17:20.668Z,5.70
2023-02-04T14:19:47.449Z,5.70
2023-02-04T14:22:14.038Z,5.70
2023-02-04T14:24:42.552Z,5.70
2023-02-04T14:27:10.395Z,5.70
2023-02-04T14:29:37.133Z,5.70
2023-02-04T14:32:04.938Z,5.70
2023-02-04T14:34:31.632Z,5.70
2023-02-04T14:36:58.306Z,5.80
2023-02-04T14:39:24.876Z,5.80
2023-02-04T14:41:51.504Z,5.80
2023-02-04T14:44:20.674Z,5.80
2023-02-04T14:46:50.779Z,5.80
2023-02-04T14:49:17.698Z,5.80
2023-02-04T14:51:44.347Z,5.70
2023-02-04T14:54:11.044Z,5.70
2023-02-04T14:56:38.799Z,5.60
2023-02-04T14:59:05.750Z,5.60
2023-02-04T15:01:32.403Z,5.50
2023-02-04T15:03:59.291Z,5.40
2023-02-04T15:06:26.249Z,5.30
2023-02-04T15:08:52.979Z,5.20
2023-02-04T15:11:19.764Z,5.00
2023-02-04T15:13:46.606Z,5.00
2023-02-04T15:16:14.704Z,4.90
2023-02-04T15:18:42.386Z,4.80
2023-02-04T15:21:09.630Z,4.70
2023-02-04T15:23:36.317Z,4.60
2023-02-04T15:26:03.371Z,4.50
2023-02-04T15:28:30.972Z,4.50
2023-02-04T15:30:58.021Z,4.50
2023-02-04T15:33:24.762Z,4.40
2023-02-04T15:35:51.402Z,4.40
2023-02-04T15:38:18.083Z,4.40
2023-02-04T15:40:44.743Z,4.30
2023-02-04T15:43:11.495Z,4.30
2023-02-04T15:45:41.266Z,4.20
2023-02-04T15:48:08.514Z,4.20
2023-02-04T15:50:35.568Z,4.10
2023-02-04T15:53:02.376Z,4.10
2023-02-04T15:55:29.262Z,4.10
2023-02-04T15:57:56.047Z,4.00
2023-02-04T16:00:22.991Z,4.00
2023-02-04T16:02:49.976Z,4.00
2023-02-04T16:05:16.866Z,4.00
2023-02-04T16:07:43.608Z,4.00
2023-02-04T16:10:10.803Z,4.00
2023-02-04T16:12:37.502Z,4.00
2023-02-04T16:15:04.347Z,3.90
2023-02-04T16:17:31.011Z,3.90
2023-02-04T16:19:58.034Z,3.90
2023-02-04T16:22:24.762Z,3.90
2023-02-04T16:24:52.768Z,3.80
2023-02-04T16:27:19.882Z,3.80
2023-02-04T16:29:46.755Z,3.80
2023-02-04T16:32:13.777Z,3.70
2023-02-04T16:34:42.324Z,3.70
2023-02-04T16:37:08.910Z,3.60
2023-02-04T16:39:38.828Z,3.60
2023-02-04T16:42:11.255Z,3.50
2023-02-04T16:44:38.645Z,3.50
2023-02-04T16:47:06.589Z,3.40
2023-02-04T16:49:33.735Z,3.30
2023-02-04T16:52:04.208Z,3.30
2023-02-04T16:54:34.559Z,3.20
2023-02-04T16:57:01.483Z,3.20
2023-02-04T16:59:28.651Z,3.20
2023-02-04T17:01:57.574Z,3.10
2023-02-04T17:04:25.060Z,3.10
2023-02-04T17:06:52.176Z,3.10
2023-02-04T17:09:19.326Z,3.10
2023-02-04T17:11:46.052Z,3.10
2023-02-04T17:14:17.135Z,3.10
2023-02-04T17:16:45.089Z,3.10
2023-02-04T17:19:12.855Z,3.10
2023-02-04T17:21:39.615Z,3.10
2023-02-04T17:24:09.522Z,3.10
2023-02-04T17:26:38.132Z,3.10
2023-02-04T17:29:17.047Z,3.00
2023-02-04T17:31:44.271Z,3.00
2023-02-04T17:34:11.353Z,3.00
2023-02-04T17:36:38.775Z,3.00
2023-02-04T17:39:07.412Z,3.00
2023-02-04T17:41:34.485Z,3.00
2023-02-04T17:44:03.125Z,3.00
2023-02-04T17:46:29.921Z,3.00
2023-02-04T17:48:58.553Z,2.90
2023-02-04T17:51:25.409Z,2.90
2023-02-04T17:53:52.044Z,3.00
2023-02-04T17:56:18.940Z,2.90
2023-02-04T17:58:45.895Z,2.90
2023-02-04T18:01:18.715Z,3.00
2023-02-04T18:03:46.321Z,3.00
2023-02-04T18:06:27.020Z,3.00
2023-02-04T18:09:01.124Z,2.90
2023-02-04T18:11:32.947Z,2.90
2023-02-04T18:14:04.999Z,2.90
2023-02-04T18:16:34.494Z,2.90
2023-02-04T18:19:19.813Z,2.90
2023-02-04T18:21:47.787Z,2.90
2023-02-04T18:24:19.455Z,3.00
2023-02-04T18:26:51.960Z,3.00
2023-02-04T18:29:40.451Z,3.00
2023-02-04T18:32:28.048Z,3.00
2023-02-04T18:34:57.275Z,3.00
2023-02-04T18:37:46.127Z,3.00
2023-02-04T18:40:27.726Z,2.90
2023-02-04T18:43:04.693Z,3.00
2023-02-04T18:45:32.978Z,2.90
2023-02-04T18:48:21.531Z,2.90
2023-02-04T18:50:54.141Z,2.90
2023-02-04T18:53:28.516Z,2.90
2023-02-04T18:55:58.170Z,2.90
2023-02-04T18:58:45.175Z,2.90
2023-02-04T19:01:12.722Z,2.80
2023-02-04T19:03:51.462Z,2.80
2023-02-04T19:06:27.851Z,2.80
2023-02-04T19:09:06.469Z,2.80
2023-02-04T19:11:43.790Z,2.80
2023-02-04T19:14:17.517Z,2.80
2023-02-04T19:16:45.068Z,2.70
2023-02-04T19:19:48.623Z,2.70
2023-02-04T19:22:43.628Z,2.70
2023-02-04T19:25:35.724Z,2.60
2023-02-04T19:28:24.623Z,2.60
2023-02-04T19:30:59.244Z,2.60
2023-02-04T19:33:37.827Z,2.60
2023-02-04T19:36:36.791Z,2.60
2023-02-04T19:39:21.531Z,2.60
2023-02-04T19:41:52.950Z,2.60
2023-02-04T19:44:44.848Z,2.60
2023-02-04T19:47:25.109Z,2.60
2023-02-04T19:50:15.758Z,2.50
2023-02-04T19:52:55.657Z,2.50
2023-02-04T19:55:30.760Z,2.50
2023-02-04T19:58:09.238Z,2.50
2023-02-04T20:00:38.644Z,2.50
2023-02-04T20:03:46.303Z,2.40
2023-02-04T20:06:37.017Z,2.40
2023-02-04T20:09:16.931Z,2.40
2023-02-04T20:11:57.298Z,2.40
2023-02-04T20:14:56.530Z,2.30
2023-02-04T20:17:36.556Z,2.30
2023-02-04T20:20:29.309Z,2.30
2023-02-04T20:23:14.540Z,2.20
2023-02-04T20:25:42.598Z,2.20
2023-02-04T20:28:35.096Z,2.10
2023-02-04T20:31:02.592Z,2.10
2023-02-04T20:33:34.684Z,2.10
2023-02-04T20:36:26.352Z,2.10
2023-02-04T20:39:16.986Z,2.10
2023-02-04T20:41:43.647Z,2.00
2023-02-04T20:44:26.172Z,2.00
2023-02-04T20:47:11.047Z,2.00
2023-02-04T20:49:41.573Z,2.00
2023-02-04T20:52:40.225Z,1.90
2023-02-04T20:55:48.229Z,1.90
2023-02-04T20:58:18.862Z,1.90
2023-02-04T21:00:48.725Z,1.80
2023-02-04T21:03:35.940Z,1.80
2023-02-04T21:06:13.272Z,1.70
2023-02-04T21:08:44.503Z,1.70
2023-02-04T21:11:11.253Z,1.70
2023-02-04T21:13:38.741Z,1.60
2023-02-04T21:16:06.133Z,1.60
2023-02-04T21:18:35.772Z,1.50
2023-02-04T21:21:07.816Z,1.50
2023-02-04T21:23:35.882Z,1.50
2023-02-04T21:26:02.959Z,1.40
2023-02-04T21:28:31.594Z,1.40
2023-02-04T21:30:59.533Z,1.30
2023-02-04T21:33:26.512Z,1.30
2023-02-04T21:35:53.175Z,1.30
2023-02-04T21:38:19.961Z,1.20
2023-02-04T21:40:46.703Z,1.20
2023-02-04T21:43:13.280Z,1.10
2023-02-04T21:45:40.018Z,1.10
2023-02-04T21:48:07.913Z,1.10
2023-02-04T21:50:36.312Z,1.00
2023-02-04T21:53:03.000Z,1.00
2023-02-04T21:55:29.559Z,1.00
2023-02-04T21:57:56.327Z,0.90
2023-02-04T22:00:23.740Z,0.90
2023-02-04T22:02:53.444Z,0.90
2023-02-04T22:05:21.462Z,0.80
2023-02-04T22:07:49.049Z,0.80
2023-02-04T22:10:20.807Z,0.80
2023-02-04T22:12:47.896Z,0.70
2023-02-04T22:15:17.560Z,0.70
2023-02-04T22:17:45.158Z,0.60
2023-02-04T22:20:14.929Z,0.60
2023-02-04T22:22:45.435Z,0.60
2023-02-04T22:25:14.034Z,0.50
2023-02-04T22:27:40.726Z,0.60
2023-02-04T22:30:09.035Z,0.50
2023-02-04T22:32:36.037Z,0.50
2023-02-04T22:35:02.779Z,0.50
2023-02-04T22:37:29.403Z,0.50
2023-02-04T22:39:56.116Z,0.50
2023-02-04T22:42:22.670Z,0.50
2023-02-04T22:44:49.393Z,0.40
2023-02-04T22:47:15.973Z,0.40
2023-02-04T22:49:42.754Z,0.40
2023-02-04T22:52:09.452Z,0.40
2023-02-04T22:54:37.669Z,0.40
2023-02-04T22:57:04.360Z,0.40
2023-02-04T22:59:30.955Z,0.40
2023-02-04T23:01:57.929Z,0.50
2023-02-04T23:04:24.625Z,0.50
2023-02-04T23:06:51.892Z,0.50
2023-02-04T23:09:18.700Z,0.50
2023-02-04T23:11:45.436Z,0.40
2023-02-04T23:14:12.232Z,0.50
2023-02-04T23:16:39.729Z,0.40
2023-02-04T23:19:06.551Z,0.40
2023-02-04T23:21:33.468Z,0.40
2023-02-04T23:24:00.268Z,0.40
2023-02-04T23:26:27.146Z,0.40
2023-02-04T23:28:53.761Z,0.40
2023-02-04T23:31:20.485Z,0.30
2023-02-04T23:33:47.087Z,0.30
2023-02-04T23:36:13.898Z,0.30
2023-02-04T23:38:40.555Z,0.30
2023-02-04T23:41:07.209Z,0.30
2023-02-04T23:43:33.869Z,0.30
2023-02-04T23:46:00.665Z,0.30
2023-02-04T23:48:27.377Z,0.30
2023-02-04T23:50:57.002Z,0.30
2023-02-04T23:53:24.021Z,0.40
2023-02-04T23:55:51.417Z,0.40
2023-02-04T23:58:18.624Z,0.40
